sensor_id;sensor_type;location;lat;lon;timestamp;pressure;altitude;pressure_sealevel;temperature;humidity
34983;BME280;21187;50.976;13.720;2022-12-10T00:03:09;97220.34;;;3.56;58.13
34983;BME280;21187;50.976;13.720;2022-12-10T00:08:11;97214.84;;;3.52;58.23
34983;BME280;21187;50.976;13.720;2022-12-10T00:13:13;97215.19;;;3.50;58.53
34983;BME280;21187;50.976;13.720;2022-12-10T00:18:15;97215.66;;;3.53;58.34
34983;BME280;21187;50.976;13.720;2022-12-10T00:23:18;97212.72;;;3.45;58.79
34983;BME280;21187;50.976;13.720;2022-12-10T00:28:24;97212.25;;;3.43;59.01
34983;BME280;21187;50.976;13.720;2022-12-10T00:33:26;97210.03;;;3.45;58.06
34983;BME280;21187;50.976;13.720;2022-12-10T00:38:28;97215.13;;;3.38;58.87
34983;BME280;21187;50.976;13.720;2022-12-10T00:43:30;97224.25;;;3.37;58.96
34983;BME280;21187;50.976;13.720;2022-12-10T00:48:32;97221.44;;;3.33;58.95
34983;BME280;21187;50.976;13.720;2022-12-10T00:53:36;97212.50;;;3.29;58.82
34983;BME280;21187;50.976;13.720;2022-12-10T00:58:40;97222.88;;;3.31;58.91
34983;BME280;21187;50.976;13.720;2022-12-10T01:03:43;97227.41;;;3.39;58.78
34983;BME280;21187;50.976;13.720;2022-12-10T01:08:47;97230.28;;;3.34;58.56
34983;BME280;21187;50.976;13.720;2022-12-10T01:13:49;97224.78;;;3.30;58.95
34983;BME280;21187;50.976;13.720;2022-12-10T01:18:57;97224.91;;;3.34;58.79
34983;BME280;21187;50.976;13.720;2022-12-10T01:24:00;97221.13;;;3.35;58.94
34983;BME280;21187;50.976;13.720;2022-12-10T01:29:04;97235.63;;;3.34;58.74
34983;BME280;21187;50.976;13.720;2022-12-10T01:34:09;97230.72;;;3.36;58.74
34983;BME280;21187;50.976;13.720;2022-12-10T01:39:14;97237.84;;;3.32;59.06
34983;BME280;21187;50.976;13.720;2022-12-10T01:49:31;97243.19;;;3.32;58.78
34983;BME280;21187;50.976;13.720;2022-12-10T01:54:38;97240.53;;;3.23;58.87
34983;BME280;21187;50.976;13.720;2022-12-10T01:59:43;97234.25;;;3.28;58.82
34983;BME280;21187;50.976;13.720;2022-12-10T02:05:13;97231.56;;;3.28;58.56
34983;BME280;21187;50.976;13.720;2022-12-10T02:15:52;97230.50;;;3.20;58.85
34983;BME280;21187;50.976;13.720;2022-12-10T02:21:03;97231.94;;;3.17;59.18
34983;BME280;21187;50.976;13.720;2022-12-10T02:26:15;97230.34;;;3.16;58.94
34983;BME280;21187;50.976;13.720;2022-12-10T02:31:24;97219.66;;;3.16;59.22
34983;BME280;21187;50.976;13.720;2022-12-10T02:36:32;97231.50;;;3.15;59.12
34983;BME280;21187;50.976;13.720;2022-12-10T02:41:43;97220.78;;;3.15;59.16
34983;BME280;21187;50.976;13.720;2022-12-10T02:46:50;97233.88;;;3.08;59.06
34983;BME280;21187;50.976;13.720;2022-12-10T02:51:54;97220.69;;;3.03;59.77
34983;BME280;21187;50.976;13.720;2022-12-10T02:57:00;97221.50;;;3.04;59.26
34983;BME280;21187;50.976;13.720;2022-12-10T03:07:27;97236.09;;;3.06;59.87
34983;BME280;21187;50.976;13.720;2022-12-10T03:12:47;97248.34;;;3.07;59.31
34983;BME280;21187;50.976;13.720;2022-12-10T03:17:51;97253.06;;;3.10;59.19
34983;BME280;21187;50.976;13.720;2022-12-10T03:22:55;97248.00;;;3.17;59.70
34983;BME280;21187;50.976;13.720;2022-12-10T03:27:59;97245.50;;;3.12;59.36
34983;BME280;21187;50.976;13.720;2022-12-10T03:33:02;97253.19;;;3.14;59.41
34983;BME280;21187;50.976;13.720;2022-12-10T03:38:05;97256.66;;;3.14;59.87
34983;BME280;21187;50.976;13.720;2022-12-10T03:43:07;97253.66;;;3.16;59.28
34983;BME280;21187;50.976;13.720;2022-12-10T03:48:09;97254.91;;;3.19;59.76
34983;BME280;21187;50.976;13.720;2022-12-10T03:53:11;97248.16;;;3.12;59.75
34983;BME280;21187;50.976;13.720;2022-12-10T03:58:13;97247.22;;;3.17;59.52
34983;BME280;21187;50.976;13.720;2022-12-10T04:03:20;97246.41;;;3.16;59.36
34983;BME280;21187;50.976;13.720;2022-12-10T04:08:22;97249.56;;;3.19;59.63
34983;BME280;21187;50.976;13.720;2022-12-10T04:13:24;97250.47;;;3.23;59.58
34983;BME280;21187;50.976;13.720;2022-12-10T04:19:01;97245.00;;;3.40;59.13
34983;BME280;21187;50.976;13.720;2022-12-10T04:24:04;97245.00;;;3.40;59.50
34983;BME280;21187;50.976;13.720;2022-12-10T04:29:29;97249.06;;;3.46;59.53
34983;BME280;21187;50.976;13.720;2022-12-10T04:34:31;97244.38;;;3.43;59.52
34983;BME280;21187;50.976;13.720;2022-12-10T04:39:33;97242.41;;;3.31;58.88
34983;BME280;21187;50.976;13.720;2022-12-10T04:44:36;97252.97;;;3.28;59.26
34983;BME280;21187;50.976;13.720;2022-12-10T04:49:38;97242.09;;;3.33;59.38
34983;BME280;21187;50.976;13.720;2022-12-10T04:54:41;97238.50;;;3.29;59.45
34983;BME280;21187;50.976;13.720;2022-12-10T04:59:43;97242.41;;;3.31;59.58
34983;BME280;21187;50.976;13.720;2022-12-10T05:04:45;97234.25;;;3.28;59.70
34983;BME280;21187;50.976;13.720;2022-12-10T05:09:49;97242.28;;;3.28;59.29
34983;BME280;21187;50.976;13.720;2022-12-10T05:14:51;97242.28;;;3.28;58.98
34983;BME280;21187;50.976;13.720;2022-12-10T05:19:53;97239.91;;;3.26;59.27
34983;BME280;21187;50.976;13.720;2022-12-10T05:24:55;97240.44;;;3.20;59.82
34983;BME280;21187;50.976;13.720;2022-12-10T05:29:56;97233.38;;;3.15;59.25
34983;BME280;21187;50.976;13.720;2022-12-10T05:34:58;97253.69;;;3.07;59.32
34983;BME280;21187;50.976;13.720;2022-12-10T05:40:00;97241.47;;;3.06;59.95
34983;BME280;21187;50.976;13.720;2022-12-10T05:45:02;97241.13;;;3.08;59.91
34983;BME280;21187;50.976;13.720;2022-12-10T05:50:05;97241.47;;;3.06;59.69
34983;BME280;21187;50.976;13.720;2022-12-10T05:55:08;97253.69;;;3.07;59.48
34983;BME280;21187;50.976;13.720;2022-12-10T06:00:11;97246.81;;;3.06;59.69
34983;BME280;21187;50.976;13.720;2022-12-10T06:05:13;97252.94;;;3.07;59.23
34983;BME280;21187;50.976;13.720;2022-12-10T06:10:15;97255.94;;;3.05;59.60
34983;BME280;21187;50.976;13.720;2022-12-10T06:15:17;97253.25;;;3.05;59.48
34983;BME280;21187;50.976;13.720;2022-12-10T06:20:18;97259.97;;;3.11;59.44
34983;BME280;21187;50.976;13.720;2022-12-10T06:25:22;97266.28;;;3.15;59.21
34983;BME280;21187;50.976;13.720;2022-12-10T06:30:24;97270.03;;;3.14;59.48
34983;BME280;21187;50.976;13.720;2022-12-10T06:35:26;97268.47;;;3.13;59.02
34983;BME280;21187;50.976;13.720;2022-12-10T06:40:28;97272.91;;;3.09;59.11
34983;BME280;21187;50.976;13.720;2022-12-10T06:45:30;97283.59;;;3.09;59.76
34983;BME280;21187;50.976;13.720;2022-12-10T06:50:32;97286.47;;;3.04;60.08
34983;BME280;21187;50.976;13.720;2022-12-10T06:55:36;97292.22;;;3.15;59.54
34983;BME280;21187;50.976;13.720;2022-12-10T07:00:38;97292.88;;;3.12;59.67
34983;BME280;21187;50.976;13.720;2022-12-10T07:05:40;97294.97;;;3.06;59.93
34983;BME280;21187;50.976;13.720;2022-12-10T07:10:42;97301.22;;;3.10;59.92
34983;BME280;21187;50.976;13.720;2022-12-10T07:15:44;97297.44;;;3.11;59.75
34983;BME280;21187;50.976;13.720;2022-12-10T07:20:46;97296.19;;;3.09;59.42
34983;BME280;21187;50.976;13.720;2022-12-10T07:25:47;97297.94;;;3.05;59.38
34983;BME280;21187;50.976;13.720;2022-12-10T07:30:49;97312.38;;;3.12;59.56
34983;BME280;21187;50.976;13.720;2022-12-10T07:35:51;97313.69;;;3.06;59.55
34983;BME280;21187;50.976;13.720;2022-12-10T07:40:53;97315.88;;;3.04;59.33
34983;BME280;21187;50.976;13.720;2022-12-10T07:45:55;97302.84;;;3.03;59.39
34983;BME280;21187;50.976;13.720;2022-12-10T07:50:57;97306.28;;;3.03;59.94
34983;BME280;21187;50.976;13.720;2022-12-10T07:56:00;97308.19;;;2.94;59.71
34983;BME280;21187;50.976;13.720;2022-12-10T08:01:06;97314.19;;;2.91;60.14
34983;BME280;21187;50.976;13.720;2022-12-10T08:06:12;97316.41;;;2.89;60.30
34983;BME280;21187;50.976;13.720;2022-12-10T08:11:16;97317.97;;;2.90;60.31
34983;BME280;21187;50.976;13.720;2022-12-10T08:16:20;97313.91;;;2.83;60.38
34983;BME280;21187;50.976;13.720;2022-12-10T08:21:27;97319.88;;;2.80;61.02
34983;BME280;21187;50.976;13.720;2022-12-10T08:26:31;97321.47;;;2.81;61.45
34983;BME280;21187;50.976;13.720;2022-12-10T08:31:33;97328.41;;;2.82;61.14
34983;BME280;21187;50.976;13.720;2022-12-10T08:36:38;97316.88;;;2.91;61.08
34983;BME280;21187;50.976;13.720;2022-12-10T08:41:41;97329.16;;;2.92;60.52
34983;BME280;21187;50.976;13.720;2022-12-10T08:46:42;97338.28;;;2.91;61.35
34983;BME280;21187;50.976;13.720;2022-12-10T08:51:44;97345.19;;;2.92;61.47
34983;BME280;21187;50.976;13.720;2022-12-10T08:56:46;97341.09;;;2.94;61.27
34983;BME280;21187;50.976;13.720;2022-12-10T09:01:48;97355.72;;;2.97;61.02
34983;BME280;21187;50.976;13.720;2022-12-10T09:06:57;97357.69;;;3.09;60.80
34983;BME280;21187;50.976;13.720;2022-12-10T09:11:58;97362.28;;;3.08;60.82
34983;BME280;21187;50.976;13.720;2022-12-10T09:17:03;97346.41;;;3.03;61.13
34983;BME280;21187;50.976;13.720;2022-12-10T09:22:06;97356.00;;;3.04;60.64
34983;BME280;21187;50.976;13.720;2022-12-10T09:27:08;97359.16;;;3.06;60.85
34983;BME280;21187;50.976;13.720;2022-12-10T09:32:10;97357.84;;;3.12;60.91
34983;BME280;21187;50.976;13.720;2022-12-10T09:37:12;97361.63;;;3.11;61.03
34983;BME280;21187;50.976;13.720;2022-12-10T09:48:30;97349.00;;;3.21;61.29
34983;BME280;21187;50.976;13.720;2022-12-10T09:53:35;97345.03;;;3.36;60.65
34983;BME280;21187;50.976;13.720;2022-12-10T09:58:38;97348.16;;;3.38;60.75
34983;BME280;21187;50.976;13.720;2022-12-10T10:03:41;97346.97;;;3.26;60.84
34983;BME280;21187;50.976;13.720;2022-12-10T10:08:49;97340.69;;;3.22;61.09
34983;BME280;21187;50.976;13.720;2022-12-10T10:13:57;97339.88;;;3.22;60.63
34983;BME280;21187;50.976;13.720;2022-12-10T10:19:13;97340.81;;;3.26;60.73
34983;BME280;21187;50.976;13.720;2022-12-10T10:24:21;97332.84;;;3.17;60.74
34983;BME280;21187;50.976;13.720;2022-12-10T10:29:24;97338.78;;;3.23;60.50
34983;BME280;21187;50.976;13.720;2022-12-10T10:34:30;97340.53;;;3.19;60.15
34983;BME280;21187;50.976;13.720;2022-12-10T10:39:33;97338.34;;;3.12;60.47
34983;BME280;21187;50.976;13.720;2022-12-10T10:44:38;97330.34;;;3.12;60.38
34983;BME280;21187;50.976;13.720;2022-12-10T10:49:43;97327.81;;;3.07;60.36
34983;BME280;21187;50.976;13.720;2022-12-10T10:54:46;97328.59;;;3.07;60.70
34983;BME280;21187;50.976;13.720;2022-12-10T10:59:51;97329.91;;;3.01;60.38
34983;BME280;21187;50.976;13.720;2022-12-10T11:04:55;97330.41;;;2.94;61.05
34983;BME280;21187;50.976;13.720;2022-12-10T11:10:01;97327.25;;;2.92;60.84
34983;BME280;21187;50.976;13.720;2022-12-10T11:20:27;97325.66;;;2.91;60.82
34983;BME280;21187;50.976;13.720;2022-12-10T11:30:39;97333.09;;;2.86;61.03
34983;BME280;21187;50.976;13.720;2022-12-10T11:36:08;97336.22;;;2.88;61.29
34983;BME280;21187;50.976;13.720;2022-12-10T11:41:40;97336.22;;;2.88;61.36
34983;BME280;21187;50.976;13.720;2022-12-10T12:03:00;97337.97;;;2.83;60.52
34983;BME280;21187;50.976;13.720;2022-12-10T12:19:02;97338.13;;;2.78;60.91
34983;BME280;21187;50.976;13.720;2022-12-10T12:24:29;97341.13;;;2.77;61.24
34983;BME280;21187;50.976;13.720;2022-12-10T12:29:44;97335.94;;;2.80;60.81
34983;BME280;21187;50.976;13.720;2022-12-10T12:34:54;97328.41;;;2.82;60.51
34983;BME280;21187;50.976;13.720;2022-12-10T12:45:14;97333.38;;;2.93;60.29
34983;BME280;21187;50.976;13.720;2022-12-10T12:50:25;97335.94;;;2.80;61.22
34983;BME280;21187;50.976;13.720;2022-12-10T13:01:06;97326.00;;;2.81;60.92
34983;BME280;21187;50.976;13.720;2022-12-10T13:11:33;97334.06;;;2.72;61.38
34983;BME280;21187;50.976;13.720;2022-12-10T13:22:39;97351.69;;;2.64;61.28
34983;BME280;21187;50.976;13.720;2022-12-10T13:27:34;97362.72;;;2.63;61.56
34983;BME280;21187;50.976;13.720;2022-12-10T13:48:58;97375.00;;;2.64;60.98
34983;BME280;21187;50.976;13.720;2022-12-10T13:59:15;97376.25;;;2.58;61.13
34983;BME280;21187;50.976;13.720;2022-12-10T14:09:50;97381.13;;;2.47;61.35
34983;BME280;21187;50.976;13.720;2022-12-10T14:15:03;97384.09;;;2.45;61.83
34983;BME280;21187;50.976;13.720;2022-12-10T14:20:08;97380.97;;;2.43;62.07
34983;BME280;21187;50.976;13.720;2022-12-10T14:25:16;97387.25;;;2.47;61.56
34983;BME280;21187;50.976;13.720;2022-12-10T14:30:24;97394.00;;;2.45;61.45
34983;BME280;21187;50.976;13.720;2022-12-10T14:35:28;97397.66;;;2.40;62.23
34983;BME280;21187;50.976;13.720;2022-12-10T14:40:40;97407.06;;;2.46;61.73
34983;BME280;21187;50.976;13.720;2022-12-10T14:50:52;97403.59;;;2.37;61.64
34983;BME280;21187;50.976;13.720;2022-12-10T14:56:00;97412.88;;;2.40;61.86
34983;BME280;21187;50.976;13.720;2022-12-10T15:01:03;97411.47;;;2.42;61.75
34983;BME280;21187;50.976;13.720;2022-12-10T15:06:07;97411.47;;;2.42;61.83
34983;BME280;21187;50.976;13.720;2022-12-10T15:11:16;97406.59;;;2.44;61.35
34983;BME280;21187;50.976;13.720;2022-12-10T15:16:27;97408.00;;;2.33;61.54
34983;BME280;21187;50.976;13.720;2022-12-10T15:21:30;97418.06;;;2.36;61.57
34983;BME280;21187;50.976;13.720;2022-12-10T15:26:33;97415.69;;;2.35;61.71
34983;BME280;21187;50.976;13.720;2022-12-10T15:31:35;97425.13;;;2.32;61.71
34983;BME280;21187;50.976;13.720;2022-12-10T15:36:51;97427.94;;;2.27;62.13
34983;BME280;21187;50.976;13.720;2022-12-10T15:41:54;97434.09;;;2.36;61.39
34983;BME280;21187;50.976;13.720;2022-12-10T15:47:05;97429.38;;;2.33;61.59
34983;BME280;21187;50.976;13.720;2022-12-10T15:52:14;97434.72;;;2.33;61.54
34983;BME280;21187;50.976;13.720;2022-12-10T15:57:21;97447.00;;;2.34;61.48
34983;BME280;21187;50.976;13.720;2022-12-10T16:02:39;97445.25;;;2.29;61.77
34983;BME280;21187;50.976;13.720;2022-12-10T16:07:42;97449.97;;;2.32;61.70
34983;BME280;21187;50.976;13.720;2022-12-10T16:12:49;97465.84;;;2.46;60.58
34983;BME280;21187;50.976;13.720;2022-12-10T16:17:51;97472.75;;;2.39;61.48
34983;BME280;21187;50.976;13.720;2022-12-10T16:22:54;97476.84;;;2.27;61.39
34983;BME280;21187;50.976;13.720;2022-12-10T16:27:57;97473.72;;;2.34;61.10
34983;BME280;21187;50.976;13.720;2022-12-10T16:33:00;97475.88;;;2.32;61.07
34983;BME280;21187;50.976;13.720;2022-12-10T16:38:03;97466.78;;;2.33;61.52
34983;BME280;21187;50.976;13.720;2022-12-10T16:43:14;97469.47;;;2.33;60.99
34983;BME280;21187;50.976;13.720;2022-12-10T16:48:17;97474.66;;;2.38;60.83
34983;BME280;21187;50.976;13.720;2022-12-10T16:53:28;97484.53;;;2.29;61.47
34983;BME280;21187;50.976;13.720;2022-12-10T16:58:30;97483.09;;;2.23;61.47
34983;BME280;21187;50.976;13.720;2022-12-10T17:03:32;97477.44;;;2.15;61.37
34983;BME280;21187;50.976;13.720;2022-12-10T17:08:33;97488.00;;;2.21;61.48
34983;BME280;21187;50.976;13.720;2022-12-10T17:13:36;97487.03;;;2.16;61.35
34983;BME280;21187;50.976;13.720;2022-12-10T17:18:38;97484.81;;;2.10;61.67
34983;BME280;21187;50.976;13.720;2022-12-10T17:23:40;97487.78;;;2.08;61.14
34983;BME280;21187;50.976;13.720;2022-12-10T17:28:42;97479.47;;;2.10;61.71
34983;BME280;21187;50.976;13.720;2022-12-10T17:33:43;97485.78;;;2.14;61.53
34983;BME280;21187;50.976;13.720;2022-12-10T17:38:52;97493.78;;;2.14;61.49
34983;BME280;21187;50.976;13.720;2022-12-10T17:43:54;97479.81;;;2.17;61.03
34983;BME280;21187;50.976;13.720;2022-12-10T17:48:56;97492.66;;;2.06;61.22
34983;BME280;21187;50.976;13.720;2022-12-10T17:53:58;97492.81;;;2.01;61.84
34983;BME280;21187;50.976;13.720;2022-12-10T17:59:01;97490.44;;;1.99;61.65
34983;BME280;21187;50.976;13.720;2022-12-10T18:04:03;97486.84;;;2.04;61.96
34983;BME280;21187;50.976;13.720;2022-12-10T18:09:09;97491.56;;;2.07;61.79
34983;BME280;21187;50.976;13.720;2022-12-10T18:14:12;97492.53;;;2.11;61.88
34983;BME280;21187;50.976;13.720;2022-12-10T18:19:16;97501.50;;;2.15;61.85
34983;BME280;21187;50.976;13.720;2022-12-10T18:24:18;97498.81;;;2.15;61.78
34983;BME280;21187;50.976;13.720;2022-12-10T18:29:21;97503.22;;;2.11;61.36
34983;BME280;21187;50.976;13.720;2022-12-10T18:34:23;97500.53;;;2.11;61.75
34983;BME280;21187;50.976;13.720;2022-12-10T18:39:27;97500.69;;;2.15;61.42
34983;BME280;21187;50.976;13.720;2022-12-10T18:44:31;97490.94;;;2.10;61.72
34983;BME280;21187;50.976;13.720;2022-12-10T18:49:33;97495.19;;;2.11;61.70
34983;BME280;21187;50.976;13.720;2022-12-10T18:54:35;97490.94;;;2.10;61.54
34983;BME280;21187;50.976;13.720;2022-12-10T18:59:38;97488.09;;;2.07;61.21
34983;BME280;21187;50.976;13.720;2022-12-10T19:04:40;97495.47;;;2.01;61.08
34983;BME280;21187;50.976;13.720;2022-12-10T19:09:43;97494.03;;;1.95;61.36
34983;BME280;21187;50.976;13.720;2022-12-10T19:14:45;97499.38;;;1.95;61.54
34983;BME280;21187;50.976;13.720;2022-12-10T19:19:47;97510.69;;;1.92;61.71
34983;BME280;21187;50.976;13.720;2022-12-10T19:24:49;97508.47;;;1.94;61.45
34983;BME280;21187;50.976;13.720;2022-12-10T19:29:50;97503.13;;;1.94;61.30
34983;BME280;21187;50.976;13.720;2022-12-10T19:34:52;97507.53;;;1.90;61.62
34983;BME280;21187;50.976;13.720;2022-12-10T19:39:54;97527.78;;;1.91;61.69
34983;BME280;21187;50.976;13.720;2022-12-10T19:44:56;97521.97;;;1.89;61.24
34983;BME280;21187;50.976;13.720;2022-12-10T19:49:59;97537.84;;;1.85;61.40
34983;BME280;21187;50.976;13.720;2022-12-10T19:55:01;97544.41;;;1.79;61.51
34983;BME280;21187;50.976;13.720;2022-12-10T20:00:05;97535.47;;;1.83;61.71
34983;BME280;21187;50.976;13.720;2022-12-10T20:05:09;97531.22;;;1.82;61.51
34983;BME280;21187;50.976;13.720;2022-12-10T20:15:21;97524.94;;;1.78;61.49
34983;BME280;21187;50.976;13.720;2022-12-10T20:20:26;97538.28;;;1.78;61.62
34983;BME280;21187;50.976;13.720;2022-12-10T20:25:28;97532.25;;;1.73;61.64
34983;BME280;21187;50.976;13.720;2022-12-10T20:30:30;97545.03;;;1.76;61.70
34983;BME280;21187;50.976;13.720;2022-12-10T20:35:32;97544.06;;;1.72;61.79
34983;BME280;21187;50.976;13.720;2022-12-10T20:40:38;97536.94;;;1.67;61.80
34983;BME280;21187;50.976;13.720;2022-12-10T20:45:40;97537.44;;;1.69;61.81
34983;BME280;21187;50.976;13.720;2022-12-10T20:50:43;97540.13;;;1.69;61.40
34983;BME280;21187;50.976;13.720;2022-12-10T20:55:45;97548.25;;;1.64;61.66
34983;BME280;21187;50.976;13.720;2022-12-10T21:00:47;97545.59;;;1.64;61.54
34983;BME280;21187;50.976;13.720;2022-12-10T21:05:49;97535.03;;;1.59;61.54
34983;BME280;21187;50.976;13.720;2022-12-10T21:10:51;97541.53;;;1.66;61.56
34983;BME280;21187;50.976;13.720;2022-12-10T21:15:57;97541.81;;;1.65;61.48
34983;BME280;21187;50.976;13.720;2022-12-10T21:21:00;97539.28;;;1.60;61.38
34983;BME280;21187;50.976;13.720;2022-12-10T21:26:02;97543.16;;;1.54;61.36
34983;BME280;21187;50.976;13.720;2022-12-10T21:31:04;97540.97;;;1.56;61.43
34983;BME280;21187;50.976;13.720;2022-12-10T21:36:09;97535.16;;;1.54;61.37
34983;BME280;21187;50.976;13.720;2022-12-10T21:41:17;97531.53;;;1.49;61.36
34983;BME280;21187;50.976;13.720;2022-12-10T21:46:39;97521.94;;;1.48;61.32
34983;BME280;21187;50.976;13.720;2022-12-10T21:51:41;97530.06;;;1.43;61.38
34983;BME280;21187;50.976;13.720;2022-12-10T21:56:43;97531.16;;;1.42;61.56
34983;BME280;21187;50.976;13.720;2022-12-10T22:01:44;97540.28;;;1.41;61.21
34983;BME280;21187;50.976;13.720;2022-12-10T22:06:46;97533.84;;;1.42;61.33
34983;BME280;21187;50.976;13.720;2022-12-10T22:11:48;97539.28;;;1.37;61.41
34983;BME280;21187;50.976;13.720;2022-12-10T22:16:50;97536.16;;;1.35;61.36
34983;BME280;21187;50.976;13.720;2022-12-10T22:21:52;97538.50;;;1.37;61.38
34983;BME280;21187;50.976;13.720;2022-12-10T22:26:54;97538.50;;;1.37;61.25
34983;BME280;21187;50.976;13.720;2022-12-10T22:31:55;97541.50;;;1.35;61.41
34983;BME280;21187;50.976;13.720;2022-12-10T22:36:58;97538.94;;;1.30;61.58
34983;BME280;21187;50.976;13.720;2022-12-10T22:41:59;97544.91;;;1.27;61.47
34983;BME280;21187;50.976;13.720;2022-12-10T22:47:01;97545.47;;;1.24;61.48
34983;BME280;21187;50.976;13.720;2022-12-10T22:52:03;97540.66;;;1.26;61.45
34983;BME280;21187;50.976;13.720;2022-12-10T22:57:05;97545.97;;;1.26;61.41
34983;BME280;21187;50.976;13.720;2022-12-10T23:02:07;97545.13;;;1.16;61.59
34983;BME280;21187;50.976;13.720;2022-12-10T23:07:09;97541.00;;;1.10;61.67
34983;BME280;21187;50.976;13.720;2022-12-10T23:12:11;97543.19;;;1.08;61.65
34983;BME280;21187;50.976;13.720;2022-12-10T23:17:31;97538.84;;;1.12;61.72
34983;BME280;21187;50.976;13.720;2022-12-10T23:22:34;97535.66;;;1.10;61.44
34983;BME280;21187;50.976;13.720;2022-12-10T23:27:36;97529.56;;;1.10;61.50
34983;BME280;21187;50.976;13.720;2022-12-10T23:32:39;97528.16;;;1.12;61.63
34983;BME280;21187;50.976;13.720;2022-12-10T23:37:41;97530.72;;;1.18;61.61
34983;BME280;21187;50.976;13.720;2022-12-10T23:42:43;97523.19;;;1.20;61.25
34983;BME280;21187;50.976;13.720;2022-12-10T23:47:45;97523.81;;;1.16;60.99
34983;BME280;21187;50.976;13.720;2022-12-10T23:52:47;97522.34;;;1.10;60.97
34983;BME280;21187;50.976;13.720;2022-12-10T23:57:49;97522.44;;;1.05;61.19
